createdAt,value
2019-01-23T00:01:51.955Z,24.97
2019-01-23T00:04:41.667Z,26.30
2019-01-23T00:07:31.762Z,23.63
2019-01-23T00:10:21.160Z,23.47
2019-01-23T00:13:11.252Z,20.77
2019-01-23T00:16:01.402Z,22.83
2019-01-23T00:18:51.395Z,21.03
2019-01-23T00:21:41.456Z,23.60
2019-01-23T00:24:31.019Z,24.30
2019-01-23T00:27:20.712Z,25.50
2019-01-23T00:30:10.802Z,25.20
2019-01-23T00:33:00.779Z,22.50
2019-01-23T00:35:50.573Z,23.20
2019-01-23T00:38:40.232Z,24.20
2019-01-23T00:41:30.511Z,23.33
2019-01-23T00:44:21.611Z,25.80
2019-01-23T00:47:11.800Z,24.57
2019-01-23T00:50:01.270Z,23.73
2019-01-23T00:52:50.920Z,24.17
2019-01-23T00:55:40.978Z,23.90
2019-01-23T00:58:30.768Z,22.73
2019-01-23T01:01:20.557Z,22.20
2019-01-23T01:04:10.514Z,24.27
2019-01-23T01:07:00.894Z,22.32
2019-01-23T01:09:50.836Z,22.60
2019-01-23T01:12:41.013Z,24.90
2019-01-23T01:15:31.141Z,22.95
2019-01-23T01:18:21.130Z,23.83
2019-01-23T01:21:11.232Z,23.10
2019-01-23T01:24:01.972Z,24.33
2019-01-23T01:26:51.987Z,25.03
2019-01-23T01:29:42.017Z,22.53
2019-01-23T01:32:32.126Z,23.17
2019-01-23T01:35:22.469Z,23.70
2019-01-23T01:38:12.630Z,25.80
2019-01-23T01:41:02.179Z,24.70
2019-01-23T01:43:51.834Z,23.77
2019-01-23T01:46:41.689Z,23.07
2019-01-23T01:49:31.638Z,23.65
2019-01-23T01:52:21.643Z,23.70
2019-01-23T01:55:12.322Z,24.50
2019-01-23T01:58:03.418Z,24.90
2019-01-23T02:00:53.572Z,24.03
2019-01-23T02:03:43.402Z,24.27
2019-01-23T02:06:32.842Z,23.93
2019-01-23T02:09:22.756Z,24.18
2019-01-23T02:12:12.703Z,23.60
2019-01-23T02:15:02.434Z,25.25
2019-01-23T02:17:52.611Z,23.52
2019-01-23T02:20:42.599Z,23.83
2019-01-23T02:23:32.769Z,25.10
2019-01-23T02:26:22.218Z,24.70
2019-01-23T02:29:12.292Z,22.70
2019-01-23T02:32:02.660Z,24.52
2019-01-23T02:34:52.733Z,21.97
2019-01-23T02:37:42.186Z,23.42
2019-01-23T02:40:41.266Z,23.70
2019-01-23T02:43:31.253Z,23.07
2019-01-23T02:46:21.043Z,22.13
2019-01-23T02:49:10.829Z,23.60
2019-01-23T02:52:00.886Z,25.30
2019-01-23T02:54:51.051Z,21.37
2019-01-23T02:57:40.904Z,23.27
2019-01-23T03:00:30.605Z,24.73
2019-01-23T03:03:20.425Z,24.75
2019-01-23T03:06:11.865Z,22.05
2019-01-23T03:09:01.659Z,21.20
2019-01-23T03:11:53.437Z,25.20
2019-01-23T03:14:44.115Z,25.53
2019-01-23T03:17:33.861Z,22.52
2019-01-23T03:20:24.167Z,25.55
2019-01-23T03:23:14.583Z,24.37
2019-01-23T03:26:05.212Z,24.45
2019-01-23T03:28:55.234Z,22.50
2019-01-23T03:31:45.470Z,21.77
2019-01-23T03:34:36.675Z,23.55
2019-01-23T03:37:26.451Z,23.73
2019-01-23T03:40:19.354Z,24.00
2019-01-23T03:43:09.169Z,23.65
2019-01-23T03:45:59.315Z,23.67
2019-01-23T03:48:49.042Z,24.30
2019-01-23T03:51:39.197Z,24.63
2019-01-23T03:54:29.094Z,25.05
2019-01-23T03:57:19.713Z,24.52
2019-01-23T04:00:18.451Z,25.12
2019-01-23T04:03:08.447Z,25.23
2019-01-23T04:05:57.962Z,26.62
2019-01-23T04:08:47.944Z,24.92
2019-01-23T04:11:37.960Z,23.00
2019-01-23T04:14:28.203Z,24.20
2019-01-23T04:17:17.908Z,25.95
2019-01-23T04:20:12.636Z,23.40
2019-01-23T04:23:04.067Z,26.77
2019-01-23T04:25:53.902Z,24.37
2019-01-23T04:28:43.698Z,24.60
2019-01-23T04:31:33.899Z,26.35
2019-01-23T04:34:23.703Z,25.75
2019-01-23T04:37:13.789Z,24.37
2019-01-23T04:40:03.814Z,23.32
2019-01-23T04:42:53.979Z,25.90
2019-01-23T04:45:43.865Z,25.70
2019-01-23T04:48:33.906Z,23.83
2019-01-23T04:51:38.878Z,24.12
2019-01-23T04:54:28.876Z,25.20
2019-01-23T04:57:18.401Z,25.10
2019-01-23T05:00:10.317Z,25.37
2019-01-23T05:03:00.111Z,24.77
2019-01-23T05:05:50.145Z,24.92
2019-01-23T05:08:40.344Z,25.20
2019-01-23T05:11:30.624Z,28.25
2019-01-23T05:14:20.344Z,26.73
2019-01-23T05:17:10.115Z,24.95
2019-01-23T05:20:00.130Z,26.65
2019-01-23T05:22:49.716Z,25.92
2019-01-23T05:25:39.778Z,25.30
2019-01-23T05:28:29.861Z,25.70
2019-01-23T05:31:20.003Z,28.42
2019-01-23T05:34:10.517Z,27.63
2019-01-23T05:37:00.567Z,28.45
2019-01-23T05:39:50.861Z,26.93
2019-01-23T05:42:40.645Z,29.60
2019-01-23T05:45:30.173Z,26.80
2019-01-23T05:48:20.182Z,27.47
2019-01-23T05:51:10.277Z,28.13
2019-01-23T05:54:00.108Z,28.17
2019-01-23T05:56:50.292Z,29.52
2019-01-23T05:59:40.437Z,25.67
2019-01-23T06:02:30.216Z,26.73
2019-01-23T06:05:19.711Z,27.40
2019-01-23T06:08:09.455Z,29.05
2019-01-23T06:10:59.063Z,28.32
2019-01-23T06:13:48.758Z,27.23
2019-01-23T06:16:57.785Z,26.60
2019-01-23T06:19:47.431Z,24.07
2019-01-23T06:22:37.870Z,29.90
2019-01-23T06:25:27.163Z,27.37
2019-01-23T06:28:16.859Z,27.85
2019-01-23T06:31:07.079Z,27.53
2019-01-23T06:33:56.776Z,27.70
2019-01-23T06:36:46.498Z,27.07
2019-01-23T06:39:36.091Z,27.32
2019-01-23T06:42:25.730Z,27.45
2019-01-23T06:45:35.029Z,26.75
2019-01-23T06:48:24.730Z,28.42
2019-01-23T06:51:14.736Z,28.60
2019-01-23T06:54:04.547Z,27.77
2019-01-23T06:56:54.734Z,28.12
2019-01-23T06:59:44.435Z,28.55
2019-01-23T07:02:34.601Z,28.15
2019-01-23T07:05:24.867Z,28.47
2019-01-23T07:08:14.499Z,27.82
2019-01-23T07:11:04.324Z,29.07
2019-01-23T07:13:55.000Z,28.38
2019-01-23T07:16:45.099Z,29.50
2019-01-23T07:19:34.679Z,30.10
2019-01-23T07:22:24.390Z,28.20
2019-01-23T07:25:14.640Z,29.82
2019-01-23T07:28:06.211Z,29.60
2019-01-23T07:30:56.125Z,32.58
2019-01-23T07:33:46.269Z,33.30
2019-01-23T07:36:36.295Z,31.23
2019-01-23T07:39:26.539Z,33.23
2019-01-23T07:42:16.493Z,36.07
2019-01-23T07:45:06.876Z,35.60
2019-01-23T07:47:56.692Z,35.30
2019-01-23T07:50:46.735Z,36.93
2019-01-23T07:53:36.275Z,41.40
2019-01-23T07:56:25.913Z,44.83
2019-01-23T07:59:15.666Z,47.30
2019-01-23T08:02:06.012Z,44.00
2019-01-23T08:04:55.812Z,42.83
2019-01-23T08:07:45.936Z,43.77
2019-01-23T08:10:35.594Z,46.30
2019-01-23T08:13:25.443Z,41.57
2019-01-23T08:16:15.510Z,53.10
2019-01-23T08:19:05.492Z,43.57
2019-01-23T08:21:55.326Z,46.20
2019-01-23T08:24:45.300Z,43.00
2019-01-23T08:27:35.319Z,45.80
2019-01-23T08:30:25.457Z,42.00
2019-01-23T08:33:15.350Z,50.93
2019-01-23T08:36:05.335Z,45.40
2019-01-23T08:38:55.140Z,45.83
2019-01-23T08:41:45.012Z,44.53
2019-01-23T08:44:34.977Z,49.73
2019-01-23T08:47:24.733Z,46.60
2019-01-23T08:50:34.047Z,49.97
2019-01-23T08:53:24.100Z,46.20
2019-01-23T08:56:14.127Z,46.43
2019-01-23T08:59:04.551Z,49.03
2019-01-23T09:01:54.528Z,48.27
2019-01-23T09:04:44.259Z,55.93
2019-01-23T09:07:34.420Z,44.10
2019-01-23T09:10:24.499Z,50.00
2019-01-23T09:13:14.190Z,42.87
2019-01-23T09:16:04.045Z,40.57
2019-01-23T09:18:54.394Z,43.80
2019-01-23T09:21:44.452Z,41.97
2019-01-23T09:24:34.147Z,53.87
2019-01-23T09:27:23.908Z,48.00
2019-01-23T09:30:45.259Z,42.77
2019-01-23T09:34:20.596Z,42.20
2019-01-23T09:37:58.518Z,43.13
2019-01-23T09:41:21.399Z,42.83
2019-01-23T09:44:35.115Z,42.50
2019-01-23T09:47:36.172Z,43.60
2019-01-23T09:50:46.316Z,44.53
2019-01-23T09:54:10.800Z,47.00
2019-01-23T09:57:01.772Z,42.27
2019-01-23T09:59:51.264Z,42.83
2019-01-23T10:02:41.405Z,41.10
2019-01-23T10:05:30.962Z,42.47
2019-01-23T10:08:21.221Z,42.73
2019-01-23T10:11:11.465Z,46.87
2019-01-23T10:14:00.883Z,42.33
2019-01-23T10:16:50.718Z,47.90
2019-01-23T10:19:40.582Z,46.07
2019-01-23T10:22:42.133Z,42.17
2019-01-23T10:25:31.951Z,42.53
2019-01-23T10:28:21.919Z,42.80
2019-01-23T10:31:12.110Z,39.70
2019-01-23T10:34:01.945Z,42.60
2019-01-23T10:36:52.122Z,48.03
2019-01-23T10:39:42.143Z,42.23
2019-01-23T10:42:31.710Z,42.17
2019-01-23T10:45:22.223Z,40.63
2019-01-23T10:48:11.958Z,41.87
2019-01-23T10:51:01.838Z,41.40
2019-01-23T10:53:52.108Z,44.00
2019-01-23T10:56:42.004Z,39.53
2019-01-23T10:59:32.069Z,46.03
2019-01-23T11:02:21.830Z,37.37
2019-01-23T11:05:17.362Z,40.60
2019-01-23T11:08:08.662Z,40.30
2019-01-23T11:10:58.659Z,39.50
2019-01-23T11:13:48.765Z,36.63
2019-01-23T11:16:38.690Z,40.27
2019-01-23T11:19:29.038Z,36.03
2019-01-23T11:22:19.397Z,40.33
2019-01-23T11:25:10.740Z,39.43
2019-01-23T11:28:00.298Z,42.07
2019-01-23T11:30:50.334Z,41.33
2019-01-23T11:33:39.877Z,40.80
2019-01-23T11:36:29.577Z,38.60
2019-01-23T11:39:19.978Z,41.53
2019-01-23T11:42:10.271Z,39.60
2019-01-23T11:44:59.916Z,39.40
2019-01-23T11:47:50.518Z,41.33
2019-01-23T11:50:40.391Z,40.87
2019-01-23T11:53:30.244Z,39.40
2019-01-23T11:56:20.328Z,38.40
2019-01-23T11:59:10.607Z,40.17
2019-01-23T12:02:00.717Z,39.40
2019-01-23T12:04:50.563Z,44.80
2019-01-23T12:07:40.517Z,37.50
2019-01-23T12:10:30.720Z,38.47
2019-01-23T12:13:20.247Z,37.40
2019-01-23T12:16:12.847Z,40.90
2019-01-23T12:19:03.116Z,41.00
2019-01-23T12:21:52.619Z,37.93
2019-01-23T12:24:42.674Z,40.03
2019-01-23T12:27:33.019Z,39.97
2019-01-23T12:30:26.738Z,39.60
2019-01-23T12:33:16.626Z,42.10
2019-01-23T12:36:06.225Z,39.23
2019-01-23T12:38:55.725Z,40.47
2019-01-23T12:41:45.594Z,39.43
2019-01-23T12:44:35.924Z,37.23
2019-01-23T12:47:26.915Z,38.70
2019-01-23T12:50:23.290Z,38.50
2019-01-23T12:53:14.559Z,36.93
2019-01-23T12:56:04.446Z,45.00
2019-01-23T12:58:54.295Z,43.77
2019-01-23T13:01:44.656Z,40.47
2019-01-23T13:04:34.921Z,41.53
2019-01-23T13:07:25.845Z,39.57
2019-01-23T13:10:18.805Z,43.20
2019-01-23T13:13:08.864Z,40.60
2019-01-23T13:15:58.931Z,42.40
2019-01-23T13:18:50.300Z,42.60
2019-01-23T13:21:40.437Z,47.93
2019-01-23T13:24:30.534Z,41.70
2019-01-23T13:27:20.020Z,44.00
2019-01-23T13:30:13.247Z,45.47
2019-01-23T13:33:03.179Z,42.73
2019-01-23T13:35:53.386Z,47.60
2019-01-23T13:38:43.114Z,42.57
2019-01-23T13:41:33.087Z,41.40
2019-01-23T13:44:23.316Z,45.37
2019-01-23T13:47:13.043Z,46.03
2019-01-23T13:50:04.536Z,43.37
2019-01-23T13:52:54.721Z,46.47
2019-01-23T13:55:44.358Z,46.40
2019-01-23T13:58:34.417Z,54.77
2019-01-23T14:01:24.854Z,44.67
2019-01-23T14:04:14.581Z,51.20
2019-01-23T14:07:04.710Z,51.40
2019-01-23T14:09:55.302Z,52.17
2019-01-23T14:12:45.476Z,55.53
2019-01-23T14:15:37.574Z,60.77
2019-01-23T14:18:27.837Z,52.90
2019-01-23T14:21:17.680Z,58.97
2019-01-23T14:24:07.630Z,58.03
2019-01-23T14:26:57.619Z,63.27
2019-01-23T14:29:47.432Z,56.60
2019-01-23T14:32:37.268Z,57.07
2019-01-23T14:35:27.583Z,54.23
2019-01-23T14:38:17.753Z,55.73
2019-01-23T14:41:07.464Z,58.53
2019-01-23T14:43:57.113Z,61.17
2019-01-23T14:46:46.905Z,61.00
2019-01-23T14:49:37.454Z,66.53
2019-01-23T14:52:27.417Z,61.10
2019-01-23T14:55:17.376Z,54.13
2019-01-23T14:58:07.545Z,62.83
2019-01-23T15:00:58.465Z,55.63
2019-01-23T15:03:48.901Z,53.60
2019-01-23T15:06:38.594Z,64.20
2019-01-23T15:09:28.428Z,61.00
2019-01-23T15:12:18.628Z,61.97
2019-01-23T15:15:09.269Z,64.17
2019-01-23T15:17:59.997Z,80.63
2019-01-23T15:20:51.272Z,63.37
2019-01-23T15:23:41.401Z,75.07
2019-01-23T15:26:31.333Z,83.10
2019-01-23T15:29:21.680Z,68.13
2019-01-23T15:32:17.264Z,66.40
2019-01-23T15:35:03.651Z,80.87
2019-01-23T15:37:53.396Z,64.00
2019-01-23T15:40:44.444Z,64.23
2019-01-23T15:43:35.176Z,73.93
2019-01-23T15:46:25.305Z,74.80
2019-01-23T15:49:15.352Z,73.13
2019-01-23T15:52:05.894Z,68.50
2019-01-23T15:54:55.963Z,68.90
2019-01-23T15:57:46.063Z,64.83
2019-01-23T16:00:36.463Z,71.97
2019-01-23T16:03:25.911Z,65.90
2019-01-23T16:06:15.919Z,68.83
2019-01-23T16:09:08.131Z,64.50
2019-01-23T16:11:58.609Z,64.20
2019-01-23T16:14:49.001Z,71.47
2019-01-23T16:17:38.885Z,82.03
2019-01-23T16:20:28.938Z,64.00
2019-01-23T16:23:19.241Z,67.77
2019-01-23T16:26:09.436Z,65.80
2019-01-23T16:28:59.566Z,69.87
2019-01-23T16:31:49.679Z,67.50
2019-01-23T16:34:39.751Z,64.47
2019-01-23T16:37:29.479Z,57.03
2019-01-23T16:40:19.464Z,57.60
2019-01-23T16:43:09.950Z,64.83
2019-01-23T16:45:59.996Z,60.27
2019-01-23T16:48:50.446Z,63.83
2019-01-23T16:51:40.485Z,61.67
2019-01-23T16:54:31.525Z,73.47
2019-01-23T16:57:21.525Z,62.80
2019-01-23T17:00:16.017Z,61.40
2019-01-23T17:03:07.469Z,62.30
2019-01-23T17:05:57.551Z,54.57
2019-01-23T17:08:47.772Z,57.20
2019-01-23T17:11:38.277Z,62.20
2019-01-23T17:14:28.967Z,52.60
2019-01-23T17:17:19.314Z,51.43
2019-01-23T17:20:18.220Z,53.77
2019-01-23T17:23:09.158Z,57.10
2019-01-23T17:25:59.580Z,51.03
2019-01-23T17:28:49.799Z,47.03
2019-01-23T17:31:39.867Z,59.73
2019-01-23T17:34:30.140Z,46.60
2019-01-23T17:37:20.742Z,51.40
2019-01-23T17:40:14.644Z,56.60
2019-01-23T17:43:04.993Z,48.43
2019-01-23T17:45:55.364Z,44.40
2019-01-23T17:48:46.392Z,45.10
2019-01-23T17:51:36.761Z,43.77
2019-01-23T17:54:26.901Z,44.47
2019-01-23T17:57:17.415Z,48.90
2019-01-23T18:00:11.082Z,43.83
2019-01-23T18:03:01.456Z,41.73
2019-01-23T18:05:52.241Z,40.97
2019-01-23T18:08:42.687Z,38.10
2019-01-23T18:11:32.986Z,45.20
2019-01-23T18:14:23.167Z,46.87
2019-01-23T18:17:13.750Z,45.00
2019-01-23T18:20:05.785Z,40.67
2019-01-23T18:22:56.301Z,40.57
2019-01-23T18:25:46.486Z,40.70
2019-01-23T18:28:37.317Z,44.50
2019-01-23T18:31:46.962Z,38.90
2019-01-23T18:35:35.595Z,41.63
2019-01-23T18:39:06.018Z,38.30
2019-01-23T18:42:42.939Z,40.90
2019-01-23T18:46:01.487Z,55.60
2019-01-23T18:49:24.743Z,36.90
2019-01-23T18:52:15.985Z,36.23
2019-01-23T18:55:10.192Z,44.23
2019-01-23T18:58:01.026Z,44.67
2019-01-23T19:00:51.657Z,34.00
2019-01-23T19:03:43.370Z,37.33
2019-01-23T19:06:34.174Z,43.97
2019-01-23T19:09:24.543Z,34.40
2019-01-23T19:12:15.416Z,39.30
2019-01-23T19:15:09.149Z,42.30
2019-01-23T19:17:59.894Z,40.33
2019-01-23T19:20:50.538Z,46.47
2019-01-23T19:23:41.310Z,36.50
2019-01-23T19:26:32.187Z,39.87
2019-01-23T19:29:23.056Z,34.33
2019-01-23T19:35:06.421Z,35.53
2019-01-23T19:37:57.084Z,34.50
2019-01-23T19:40:50.106Z,37.10
2019-01-23T19:43:40.877Z,38.67
2019-01-23T19:46:31.396Z,34.70
2019-01-23T19:49:21.742Z,41.57
2019-01-23T19:52:12.756Z,31.97
2019-01-23T19:55:03.033Z,33.63
2019-01-23T19:57:54.079Z,33.90
2019-01-23T20:00:44.234Z,36.23
2019-01-23T20:03:34.799Z,31.10
2019-01-23T20:06:25.355Z,31.43
2019-01-23T20:09:16.311Z,30.53
2019-01-23T20:12:07.576Z,32.67
2019-01-23T20:14:58.451Z,33.90
2019-01-23T20:17:49.699Z,31.93
2019-01-23T20:20:40.544Z,34.50
2019-01-23T20:23:31.234Z,34.70
2019-01-23T20:26:21.300Z,32.30
2019-01-23T20:29:12.213Z,30.63
2019-01-23T20:32:02.698Z,37.30
2019-01-23T20:34:53.037Z,30.03
2019-01-23T20:37:43.707Z,34.23
2019-01-23T20:40:33.347Z,35.20
2019-01-23T20:43:23.684Z,30.50
2019-01-23T20:46:17.261Z,34.30
2019-01-23T20:49:08.861Z,27.13
2019-01-23T20:51:59.623Z,30.63
2019-01-23T20:54:50.434Z,35.23
2019-01-23T20:57:41.332Z,28.43
2019-01-23T21:00:33.830Z,28.07
2019-01-23T21:03:23.918Z,36.03
2019-01-23T21:06:14.760Z,31.83
2019-01-23T21:09:09.024Z,31.27
2019-01-23T21:11:59.891Z,29.07
2019-01-23T21:14:50.403Z,31.43
2019-01-23T21:17:40.689Z,31.60
2019-01-23T21:20:35.419Z,27.40
2019-01-23T21:23:27.084Z,29.50
2019-01-23T21:26:17.411Z,27.30
2019-01-23T21:29:07.940Z,30.93
2019-01-23T21:31:58.576Z,26.23
2019-01-23T21:34:49.404Z,28.80
2019-01-23T21:37:40.266Z,28.50
2019-01-23T21:40:33.302Z,25.67
2019-01-23T21:43:23.722Z,28.10
2019-01-23T21:46:14.464Z,28.63
2019-01-23T21:49:05.204Z,27.70
2019-01-23T21:51:55.336Z,27.23
2019-01-23T21:54:45.244Z,30.53
2019-01-23T21:57:35.100Z,28.23
2019-01-23T22:00:41.949Z,30.57
2019-01-23T22:03:31.981Z,27.13
2019-01-23T22:06:22.380Z,26.97
2019-01-23T22:09:12.452Z,28.70
2019-01-23T22:12:02.458Z,26.00
2019-01-23T22:14:52.271Z,27.50
2019-01-23T22:17:42.546Z,27.20
2019-01-23T22:20:32.474Z,34.70
2019-01-23T22:23:24.027Z,32.90
2019-01-23T22:26:13.774Z,27.83
2019-01-23T22:29:03.504Z,28.00
2019-01-23T22:31:53.476Z,28.87
2019-01-23T22:34:43.211Z,28.73
2019-01-23T22:37:33.307Z,27.57
2019-01-23T22:40:23.690Z,31.33
2019-01-23T22:43:15.124Z,28.00
2019-01-23T22:46:05.921Z,29.90
2019-01-23T22:48:55.467Z,28.53
2019-01-23T22:51:45.330Z,30.67
2019-01-23T22:54:35.386Z,27.37
2019-01-23T22:57:25.393Z,28.00
2019-01-23T23:01:19.324Z,27.00
2019-01-23T23:04:09.435Z,27.03
2019-01-23T23:07:00.567Z,26.03
2019-01-23T23:09:50.720Z,29.63
2019-01-23T23:12:40.752Z,28.07
2019-01-23T23:15:30.809Z,30.60
2019-01-23T23:18:20.667Z,27.47
2019-01-23T23:21:10.533Z,26.90
2019-01-23T23:24:00.353Z,29.13
2019-01-23T23:26:50.325Z,27.43
2019-01-23T23:29:41.728Z,27.10
2019-01-23T23:32:31.882Z,29.00
2019-01-23T23:35:24.799Z,28.03
2019-01-23T23:38:14.723Z,27.17
2019-01-23T23:41:04.965Z,26.00
2019-01-23T23:43:55.178Z,28.20
2019-01-23T23:46:45.623Z,27.77
2019-01-23T23:49:35.351Z,26.93
2019-01-23T23:52:25.770Z,26.33
2019-01-23T23:55:16.481Z,26.97
2019-01-23T23:58:06.400Z,28.50
